Thunder radar more information blitzortung!


Löydät sääaseman tiedot myös:

European Weather Network

Finland Weather Exchange

Weather Underground

AWEKAS



Weather Underground säähistoriasivu

Päivittäin yhteenveto Maaliskuu 12, 2017 Yksiköt:  Molemmat    Englantilaiset   Metriset
« Edellinen Päivä
Seuraava Päivä »
Päivittäin Viikoittain Kuukausittain Vuosittain Mukautettu
  Korkea: Matala: Keskiarvo:
Lämpötila: TemperatureC °F /  -17.8 °C -2.6 °F /  -19.2 °C 0.2 °F /  -17.7 °C
Kastepiste: DewpointC °F /  -17.8 °C -3.3 °F /  -19.6 °C -1.1 °F /  -18.4 °C
Kosteus: Humidity % 82 % 90 %
Tuulen nopeus: WindSpeedKMH mph /  0 km/h - 6 mph /  9.7 km/h
Tuulenpuuska: WindSpeedGustKMH mph /  0 km/h - -
Tuuli:- - SSW
Ilmanpaine: PressurehPa in /  0 hPa 1016.8 in /  34428.8 hPa -
Sade: 0.0 in /  0 mm    
Historical Graphs
 
 
Taulukkotiedot Maaliskuu 12, 2017
Aika Lämpötila Kastepiste Ilmanpaine Tuuli Tuulen nopeus Tuulenpuuska Kosteus Sademäärä (tunneittain)
TemperatureC °F /  -17.8 °C DewpointC °F /  -17.8 °C PressurehPa in /  0 hPa Calm     Humidity % HourlyPrecipMM in /  0 mm
00:00 -2.3 °F /  -19.1 °C -2.8 °F /  -19.3 °C 1020.5 in /  34554.1 hPa SSW 1.6 mph /  2.6 km/h 8.0 mph /  12.9 km/h 96 % 0.0 in /  0 mm
00:15 -2.3 °F /  -19.1 °C -2.9 °F /  -19.4 °C 1020.5 in /  34554.1 hPa Calm   6.4 mph /  10.3 km/h 96 % 0.0 in /  0 mm
00:30 -2.4 °F /  -19.1 °C -2.9 °F /  -19.4 °C 1020.5 in /  34554.1 hPa SSW 1.6 mph /  2.6 km/h 8.0 mph /  12.9 km/h 96 % 0.0 in /  0 mm
00:45 -2.4 °F /  -19.1 °C -2.9 °F /  -19.4 °C 1020.9 in /  34567.7 hPa SSW 1.6 mph /  2.6 km/h 6.4 mph /  10.3 km/h 96 % 0.0 in /  0 mm
01:00 -2.4 °F /  -19.1 °C -3.0 °F /  -19.4 °C 1020.5 in /  34554.1 hPa SSW 3.2 mph /  5.1 km/h 9.7 mph /  15.6 km/h 96 % 0.0 in /  0 mm
01:15 -2.4 °F /  -19.1 °C -3.0 °F /  -19.4 °C 1020.5 in /  34554.1 hPa SSW 3.2 mph /  5.1 km/h 9.7 mph /  15.6 km/h 96 % 0.0 in /  0 mm
01:30 -2.6 °F /  -19.2 °C -3.1 °F /  -19.5 °C 1020.9 in /  34567.7 hPa SSW 3.2 mph /  5.1 km/h 8.0 mph /  12.9 km/h 96 % 0.0 in /  0 mm
01:45 -2.6 °F /  -19.2 °C -3.3 °F /  -19.6 °C 1020.5 in /  34554.1 hPa South 1.6 mph /  2.6 km/h 6.4 mph /  10.3 km/h 95 % 0.0 in /  0 mm
02:00 -2.6 °F /  -19.2 °C -3.3 °F /  -19.6 °C 1020.5 in /  34554.1 hPa SSW 4.8 mph /  7.7 km/h 14.5 mph /  23.3 km/h 95 % 0.0 in /  0 mm
02:15 -2.6 °F /  -19.2 °C -3.2 °F /  -19.6 °C 1020.5 in /  34554.1 hPa SSW 4.8 mph /  7.7 km/h 11.3 mph /  18.2 km/h 96 % 0.0 in /  0 mm
02:30 -2.6 °F /  -19.2 °C -3.2 °F /  -19.6 °C 1020.5 in /  34554.1 hPa SSW 4.8 mph /  7.7 km/h 11.3 mph /  18.2 km/h 95 % 0.0 in /  0 mm
02:45 -2.6 °F /  -19.2 °C -3.2 °F /  -19.6 °C 1020.5 in /  34554.1 hPa SSW 4.8 mph /  7.7 km/h 12.9 mph /  20.8 km/h 95 % 0.0 in /  0 mm
03:00 -2.6 °F /  -19.2 °C -3.2 °F /  -19.6 °C 1020.2 in /  34544 hPa SSW 4.8 mph /  7.7 km/h 11.3 mph /  18.2 km/h 95 % 0.0 in /  0 mm
03:15 -2.5 °F /  -19.2 °C -3.2 °F /  -19.6 °C 1019.9 in /  34533.8 hPa SSW 6.4 mph /  10.3 km/h 11.3 mph /  18.2 km/h 95 % 0.0 in /  0 mm
03:30 -2.4 °F /  -19.1 °C -3.1 °F /  -19.5 °C 1019.9 in /  34533.8 hPa SSW 6.4 mph /  10.3 km/h 12.9 mph /  20.8 km/h 95 % 0.0 in /  0 mm
03:45 -2.4 °F /  -19.1 °C -3.2 °F /  -19.6 °C 1019.9 in /  34533.8 hPa SSW 6.4 mph /  10.3 km/h 14.5 mph /  23.3 km/h 94 % 0.0 in /  0 mm
04:00 -2.4 °F /  -19.1 °C -3.2 °F /  -19.6 °C 1019.5 in /  34520.3 hPa SSW 6.4 mph /  10.3 km/h 11.3 mph /  18.2 km/h 94 % 0.0 in /  0 mm
04:15 -2.3 °F /  -19.1 °C -3.2 °F /  -19.6 °C 1019.5 in /  34520.3 hPa SSW 4.8 mph /  7.7 km/h 11.3 mph /  18.2 km/h 94 % 0.0 in /  0 mm
04:30 -2.3 °F /  -19.1 °C -3.1 °F /  -19.5 °C 1019.2 in /  34510.1 hPa SSW 6.4 mph /  10.3 km/h 12.9 mph /  20.8 km/h 94 % 0.0 in /  0 mm
04:45 -2.3 °F /  -19.1 °C -3.1 °F /  -19.5 °C 1018.8 in /  34496.6 hPa SSW 6.4 mph /  10.3 km/h 16.1 mph /  25.9 km/h 94 % 0.0 in /  0 mm
05:00 -2.3 °F /  -19.1 °C -3.2 °F /  -19.6 °C 1018.8 in /  34496.6 hPa SSW 4.8 mph /  7.7 km/h 11.3 mph /  18.2 km/h 94 % 0.0 in /  0 mm
05:15 -2.3 °F /  -19.1 °C -3.1 °F /  -19.5 °C 1018.5 in /  34486.4 hPa SSW 6.4 mph /  10.3 km/h 11.3 mph /  18.2 km/h 94 % 0.0 in /  0 mm
05:30 -2.3 °F /  -19.1 °C -3.2 °F /  -19.6 °C 1018.5 in /  34486.4 hPa SSW 4.8 mph /  7.7 km/h 9.7 mph /  15.6 km/h 94 % 0.0 in /  0 mm
05:45 -2.3 °F /  -19.1 °C -3.2 °F /  -19.6 °C 1018.5 in /  34486.4 hPa SSW 3.2 mph /  5.1 km/h 9.7 mph /  15.6 km/h 94 % 0.0 in /  0 mm
06:00 -2.2 °F /  -19 °C -3.1 °F /  -19.5 °C 1018.2 in /  34476.3 hPa SSW 4.8 mph /  7.7 km/h 11.3 mph /  18.2 km/h 94 % 0.0 in /  0 mm
06:15 -2.0 °F /  -18.9 °C -2.8 °F /  -19.3 °C 1018.2 in /  34476.3 hPa SSW 4.8 mph /  7.7 km/h 12.9 mph /  20.8 km/h 94 % 0.0 in /  0 mm
06:30 -1.9 °F /  -18.8 °C -2.8 °F /  -19.3 °C 1018.2 in /  34476.3 hPa SSW 4.8 mph /  7.7 km/h 11.3 mph /  18.2 km/h 94 % 0.0 in /  0 mm
06:45 -1.8 °F /  -18.8 °C -2.8 °F /  -19.3 °C 1017.8 in /  34462.7 hPa SSW 4.8 mph /  7.7 km/h 12.9 mph /  20.8 km/h 93 % 0.0 in /  0 mm
07:00 -1.8 °F /  -18.8 °C -2.8 °F /  -19.3 °C 1017.8 in /  34462.7 hPa SSW 4.8 mph /  7.7 km/h 9.7 mph /  15.6 km/h 93 % 0.0 in /  0 mm
07:15 -1.8 °F /  -18.8 °C -2.8 °F /  -19.3 °C 1017.8 in /  34462.7 hPa SSW 4.8 mph /  7.7 km/h 14.5 mph /  23.3 km/h 93 % 0.0 in /  0 mm
07:30 -1.6 °F /  -18.7 °C -2.6 °F /  -19.2 °C 1017.8 in /  34462.7 hPa SSW 4.8 mph /  7.7 km/h 9.7 mph /  15.6 km/h 93 % 0.0 in /  0 mm
07:45 -1.4 °F /  -18.6 °C -2.4 °F /  -19.1 °C 1017.8 in /  34462.7 hPa SSW 4.8 mph /  7.7 km/h 11.3 mph /  18.2 km/h 93 % 0.0 in /  0 mm
08:00 -1.3 °F /  -18.5 °C -2.3 °F /  -19.1 °C 1017.8 in /  34462.7 hPa SSW 1.6 mph /  2.6 km/h 9.7 mph /  15.6 km/h 93 % 0.0 in /  0 mm
08:15 -1.0 °F /  -18.3 °C -2.1 °F /  -18.9 °C 1017.5 in /  34452.6 hPa South 3.2 mph /  5.1 km/h 9.7 mph /  15.6 km/h 92 % 0.0 in /  0 mm
08:30 -0.6 °F /  -18.1 °C -1.7 °F /  -18.7 °C 1017.5 in /  34452.6 hPa SSW 4.8 mph /  7.7 km/h 12.9 mph /  20.8 km/h 92 % 0.0 in /  0 mm
08:45 -0.3 °F /  -17.9 °C -1.4 °F /  -18.6 °C 1017.2 in /  34442.4 hPa SSW 3.2 mph /  5.1 km/h 14.5 mph /  23.3 km/h 92 % 0.0 in /  0 mm
09:00 0.1 °F /  -17.7 °C -1.2 °F /  -18.4 °C 1017.2 in /  34442.4 hPa SSW 6.4 mph /  10.3 km/h 16.1 mph /  25.9 km/h 91 % 0.0 in /  0 mm
09:15 0.4 °F /  -17.6 °C -1.1 °F /  -18.4 °C 1017.2 in /  34442.4 hPa SSW 6.4 mph /  10.3 km/h 14.5 mph /  23.3 km/h 90 % 0.0 in /  0 mm
09:30 0.7 °F /  -17.4 °C -0.9 °F /  -18.3 °C 1017.2 in /  34442.4 hPa SSW 6.4 mph /  10.3 km/h 16.1 mph /  25.9 km/h 89 % 0.0 in /  0 mm
09:45 1.1 °F /  -17.2 °C -0.7 °F /  -18.2 °C 1017.2 in /  34442.4 hPa SSW 8.0 mph /  12.9 km/h 12.9 mph /  20.8 km/h 88 % 0.0 in /  0 mm
10:00 1.3 °F /  -17.1 °C -0.6 °F /  -18.1 °C 1017.2 in /  34442.4 hPa SSW 8.0 mph /  12.9 km/h 20.9 mph /  33.6 km/h 87 % 0.0 in /  0 mm
10:15 1.7 °F /  -16.8 °C -0.4 °F /  -18 °C 1017.2 in /  34442.4 hPa SSW 8.0 mph /  12.9 km/h 19.3 mph /  31.1 km/h 86 % 0.0 in /  0 mm
10:30 2.2 °F /  -16.6 °C -0.2 °F /  -17.9 °C 1016.8 in /  34428.8 hPa SSW 9.7 mph /  15.6 km/h 17.7 mph /  28.5 km/h 84 % 0.0 in /  0 mm
10:45 2.6 °F /  -16.3 °C 0.0 °F /  -17.8 °C 1016.8 in /  34428.8 hPa SSW 11.3 mph /  18.2 km/h 24.1 mph /  38.8 km/h 83 % 0.0 in /  0 mm
11:00 3.0 °F /  -16.1 °C 0.2 °F /  -17.7 °C 1016.8 in /  34428.8 hPa SSW 11.3 mph /  18.2 km/h 32.2 mph /  51.8 km/h 82 % 0.0 in /  0 mm
11:15 3.1 °F /  -16.1 °C 0.3 °F /  -17.6 °C 1016.8 in /  34428.8 hPa SSW 12.9 mph /  20.8 km/h 32.2 mph /  51.8 km/h 82 % 0.0 in /  0 mm
11:30 3.2 °F /  -16 °C 0.4 °F /  -17.6 °C 1016.8 in /  34428.8 hPa SSW 9.7 mph /  15.6 km/h 25.7 mph /  41.4 km/h 82 % 0.0 in /  0 mm
11:45 3.1 °F /  -16.1 °C 0.3 °F /  -17.6 °C 1017.2 in /  34442.4 hPa SSW 8.0 mph /  12.9 km/h 30.6 mph /  49.2 km/h 82 % 0.0 in /  0 mm
12:00 3.1 °F /  -16.1 °C 0.5 °F /  -17.5 °C 1017.2 in /  34442.4 hPa SSW 9.7 mph /  15.6 km/h 22.5 mph /  36.2 km/h 83 % 0.0 in /  0 mm
12:15 3.1 °F /  -16.1 °C 0.5 °F /  -17.5 °C 1017.2 in /  34442.4 hPa SSW 8.0 mph /  12.9 km/h 27.4 mph /  44.1 km/h 83 % 0.0 in /  0 mm
12:30 2.9 °F /  -16.2 °C 0.3 °F /  -17.6 °C 1017.2 in /  34442.4 hPa SSW 11.3 mph /  18.2 km/h 25.7 mph /  41.4 km/h 83 % 0.0 in /  0 mm
12:45 2.9 °F /  -16.2 °C 0.5 °F /  -17.5 °C 1017.2 in /  34442.4 hPa SSW 9.7 mph /  15.6 km/h 30.6 mph /  49.2 km/h 84 % 0.0 in /  0 mm
13:00 2.8 °F /  -16.2 °C 0.3 °F /  -17.6 °C 1017.2 in /  34442.4 hPa SSW 9.7 mph /  15.6 km/h 32.2 mph /  51.8 km/h 84 % 0.0 in /  0 mm
13:15 2.8 °F /  -16.2 °C 0.5 °F /  -17.5 °C 1017.2 in /  34442.4 hPa SSW 9.7 mph /  15.6 km/h 25.7 mph /  41.4 km/h 85 % 0.0 in /  0 mm
13:30 2.7 °F /  -16.3 °C 0.4 °F /  -17.6 °C 1017.2 in /  34442.4 hPa SSW 11.3 mph /  18.2 km/h 29.0 mph /  46.7 km/h 85 % 0.0 in /  0 mm
13:45 2.7 °F /  -16.3 °C 0.6 °F /  -17.4 °C 1016.8 in /  34428.8 hPa SSW 9.7 mph /  15.6 km/h 20.9 mph /  33.6 km/h 86 % 0.0 in /  0 mm
14:00 2.9 °F /  -16.2 °C 0.5 °F /  -17.5 °C 1017.2 in /  34442.4 hPa SSW 8.0 mph /  12.9 km/h 24.1 mph /  38.8 km/h 84 % 0.0 in /  0 mm
14:15 2.9 °F /  -16.2 °C 0.5 °F /  -17.5 °C 1016.8 in /  34428.8 hPa SSW 9.7 mph /  15.6 km/h 27.4 mph /  44.1 km/h 84 % 0.0 in /  0 mm
14:30 2.9 °F /  -16.2 °C 0.7 °F /  -17.4 °C 1017.2 in /  34442.4 hPa SSW 8.0 mph /  12.9 km/h 24.1 mph /  38.8 km/h 85 % 0.0 in /  0 mm
14:45 2.9 °F /  -16.2 °C 0.5 °F /  -17.5 °C 1017.2 in /  34442.4 hPa SSW 9.7 mph /  15.6 km/h 27.4 mph /  44.1 km/h 84 % 0.0 in /  0 mm
15:00 2.8 °F /  -16.2 °C 0.6 °F /  -17.4 °C 1017.2 in /  34442.4 hPa SSW 11.3 mph /  18.2 km/h 25.7 mph /  41.4 km/h 85 % 0.0 in /  0 mm
15:15 2.8 °F /  -16.2 °C 0.6 °F /  -17.4 °C 1017.2 in /  34442.4 hPa SSW 6.4 mph /  10.3 km/h 19.3 mph /  31.1 km/h 85 % 0.0 in /  0 mm
15:30 2.8 °F /  -16.2 °C 0.5 °F /  -17.5 °C 1017.2 in /  34442.4 hPa SSW 8.0 mph /  12.9 km/h 19.3 mph /  31.1 km/h 85 % 0.0 in /  0 mm
15:45 2.7 °F /  -16.3 °C 0.6 °F /  -17.4 °C 1016.8 in /  34428.8 hPa SSW 9.7 mph /  15.6 km/h 19.3 mph /  31.1 km/h 86 % 0.0 in /  0 mm
16:00 2.7 °F /  -16.3 °C 0.6 °F /  -17.4 °C 1017.2 in /  34442.4 hPa SW 6.4 mph /  10.3 km/h 19.3 mph /  31.1 km/h 86 % 0.0 in /  0 mm
16:15 2.7 °F /  -16.3 °C 0.6 °F /  -17.4 °C 1016.8 in /  34428.8 hPa SSW 8.0 mph /  12.9 km/h 17.7 mph /  28.5 km/h 86 % 0.0 in /  0 mm
16:30 2.7 °F /  -16.3 °C 0.6 °F /  -17.4 °C 1016.8 in /  34428.8 hPa SSW 9.7 mph /  15.6 km/h 22.5 mph /  36.2 km/h 86 % 0.0 in /  0 mm
16:45 2.6 °F /  -16.3 °C 0.7 °F /  -17.4 °C 1017.2 in /  34442.4 hPa SSW 8.0 mph /  12.9 km/h 16.1 mph /  25.9 km/h 87 % 0.0 in /  0 mm
19:45 1.8 °F /  -16.8 °C 0.5 °F /  -17.5 °C 1017.5 in /  34452.6 hPa SSW 4.8 mph /  7.7 km/h 12.9 mph /  20.8 km/h 91 % 0.0 in /  0 mm
20:00 1.7 °F /  -16.8 °C 0.6 °F /  -17.4 °C 1017.2 in /  34442.4 hPa SSW 6.4 mph /  10.3 km/h 16.1 mph /  25.9 km/h 92 % 0.0 in /  0 mm
20:15 1.6 °F /  -16.9 °C 0.4 °F /  -17.6 °C 1017.5 in /  34452.6 hPa SSW 4.8 mph /  7.7 km/h 17.7 mph /  28.5 km/h 92 % 0.0 in /  0 mm
20:30 1.4 °F /  -17 °C 0.4 °F /  -17.6 °C 1017.8 in /  34462.7 hPa SSW 3.2 mph /  5.1 km/h 11.3 mph /  18.2 km/h 93 % 0.0 in /  0 mm
20:45 1.4 °F /  -17 °C 0.4 °F /  -17.6 °C 1017.5 in /  34452.6 hPa SSW 4.8 mph /  7.7 km/h 14.5 mph /  23.3 km/h 93 % 0.0 in /  0 mm
21:00 1.3 °F /  -17.1 °C 0.3 °F /  -17.6 °C 1017.5 in /  34452.6 hPa SSW 4.8 mph /  7.7 km/h 11.3 mph /  18.2 km/h 93 % 0.0 in /  0 mm
21:15 1.3 °F /  -17.1 °C 0.3 °F /  -17.6 °C 1017.5 in /  34452.6 hPa SSW 4.8 mph /  7.7 km/h 14.5 mph /  23.3 km/h 93 % 0.0 in /  0 mm
21:30 1.2 °F /  -17.1 °C 0.4 °F /  -17.6 °C 1017.5 in /  34452.6 hPa SSW 6.4 mph /  10.3 km/h 14.5 mph /  23.3 km/h 94 % 0.0 in /  0 mm
21:45 1.1 °F /  -17.2 °C 0.3 °F /  -17.6 °C 1017.8 in /  34462.7 hPa SSW 4.8 mph /  7.7 km/h 16.1 mph /  25.9 km/h 94 % 0.0 in /  0 mm
22:00 0.9 °F /  -17.3 °C 0.1 °F /  -17.7 °C 1017.8 in /  34462.7 hPa SSW 6.4 mph /  10.3 km/h 16.1 mph /  25.9 km/h 94 % 0.0 in /  0 mm
22:15 0.8 °F /  -17.3 °C 0.0 °F /  -17.8 °C 1017.8 in /  34462.7 hPa SW 4.8 mph /  7.7 km/h 14.5 mph /  23.3 km/h 94 % 0.0 in /  0 mm
22:30 0.6 °F /  -17.4 °C -0.2 °F /  -17.9 °C 1018.2 in /  34476.3 hPa SSW 3.2 mph /  5.1 km/h 9.7 mph /  15.6 km/h 94 % 0.0 in /  0 mm
22:45 0.5 °F /  -17.5 °C -0.4 °F /  -18 °C 1018.2 in /  34476.3 hPa SSW 1.6 mph /  2.6 km/h 6.4 mph /  10.3 km/h 94 % 0.0 in /  0 mm
23:00 0.4 °F /  -17.6 °C -0.3 °F /  -17.9 °C 1017.8 in /  34462.7 hPa SSW 4.8 mph /  7.7 km/h 11.3 mph /  18.2 km/h 95 % 0.0 in /  0 mm
23:15 0.3 °F /  -17.6 °C -0.4 °F /  -18 °C 1018.2 in /  34476.3 hPa SSW 3.2 mph /  5.1 km/h 9.7 mph /  15.6 km/h 95 % 0.0 in /  0 mm
23:30 0.2 °F /  -17.7 °C -0.5 °F /  -18.1 °C 1018.2 in /  34476.3 hPa SSW 3.2 mph /  5.1 km/h 11.3 mph /  18.2 km/h 95 % 0.0 in /  0 mm
23:45 0.1 °F /  -17.7 °C -0.6 °F /  -18.1 °C 1018.2 in /  34476.3 hPa SSW 4.8 mph /  7.7 km/h 9.7 mph /  15.6 km/h 95 % 0.0 in /  0 mm
Esan sääasema
Terveisin Weather Underground - 2.75 mb

Alkuperäinen skripti  Jim McMurry - jmcmurry@mwt.net Sovitettu myös templatelle  Wim van der Kuil - Leuven-Template.eu

Laitteet joita käytämme:

Sääasema
Davis VP2

Sääasemaohjelma
Cumulus

Sääaseman tietokone
Asus EeePC

Palveluntarjoaja
Suncomet

Davis VP2

Cumulus

Asus EeePC

Suncomet